Time;durP1;ratioP1;P1;durP2;ratioP2;P2;SDS_P1;SDS_P2;PMS_P1;PMS_P2;Temp;Humidity;BMP_temperature;BMP_pressure;BME280_temperature;BME280_humidity;BME280_pressure;Samples;Min_cycle;Max_cycle;Signal;HPM_P1;HPM_P2
2021/12/26 00:01:49;;;;;;;12.53;10.40;;;;;;;;;;5047547;28;20201;-83
2021/12/26 00:04:25;;;;;;;14.17;10.53;;;;;;;;;;5049967;28;20235;-85
2021/12/26 00:07:02;;;;;;;13.77;11.17;;;;;;;;;;5055667;28;20220;-87
2021/12/26 00:09:31;;;;;;;13.50;11.07;;;;;;;;;;5057904;28;20238;-85
2021/12/26 00:12:01;;;;;;;13.67;11.17;;;;;;;;;;5050290;28;20214;-84
2021/12/26 00:14:33;;;;;;;14.93;12.10;;;;;;;;;;5062500;28;20288;-86
2021/12/26 00:19:44;;;;;;;16.37;12.70;;;;;;;;;;5027561;28;20225;-84
2021/12/26 00:22:11;;;;;;;15.87;12.67;;;;;;;;;;5071691;28;20235;-84
2021/12/26 00:24:38;;;;;;;15.33;12.20;;;;;;;;;;5077227;28;20235;-85
2021/12/26 00:27:20;;;;;;;;;;;;;;;;;;;;;
2021/12/26 00:29:52;;;;;;;15.97;12.10;;;;;;;;;;5063021;28;20213;-86
2021/12/26 00:32:26;;;;;;;17.60;13.20;;;;;;;;;;5064585;28;20205;-84
2021/12/26 00:34:53;;;;;;;18.13;14.13;;;;;;;;;;5064549;28;20221;-83
2021/12/26 00:37:23;;;;;;;17.27;13.77;;;;;;;;;;5058887;28;20201;-84
2021/12/26 00:39:50;;;;;;;17.07;13.87;;;;;;;;;;5056697;28;20225;-84
2021/12/26 00:42:23;;;;;;;19.00;14.90;;;;;;;;;;5061154;28;20216;-84
2021/12/26 00:44:53;;;;;;;20.17;14.87;;;;;;;;;;5065318;28;20263;-84
2021/12/26 00:47:23;;;;;;;21.63;15.93;;;;;;;;;;5064726;28;20223;-84
2021/12/26 00:50:06;;;;;;;21.03;15.93;;;;;;;;;;5063887;28;20204;-84
2021/12/26 00:52:40;;;;;;;23.23;16.77;;;;;;;;;;5054099;28;20233;-84
2021/12/26 00:55:17;;;;;;;23.00;16.30;;;;;;;;;;5056378;28;20251;-84
2021/12/26 00:57:52;;;;;;;24.57;16.23;;;;;;;;;;5054664;28;20202;-84
2021/12/26 01:00:24;;;;;;;22.90;16.77;;;;;;;;;;5065327;28;20282;-84
2021/12/26 01:03:00;;;;;;;25.67;17.50;;;;;;;;;;5054175;28;20205;-84
2021/12/26 01:05:32;;;;;;;24.53;17.43;;;;;;;;;;5065231;28;20235;-84
2021/12/26 01:08:04;;;;;;;24.57;17.63;;;;;;;;;;5054148;28;20300;-84
2021/12/26 01:10:40;;;;;;;24.27;17.53;;;;;;;;;;5063571;28;20237;-82
2021/12/26 01:13:15;;;;;;;23.60;17.37;;;;;;;;;;5045026;28;20209;-84
2021/12/26 01:15:53;;;;;;;24.77;17.97;;;;;;;;;;5038621;28;20229;-83
2021/12/26 01:18:24;;;;;;;26.07;19.23;;;;;;;;;;5054005;28;20223;-84
2021/12/26 01:20:57;;;;;;;23.27;17.50;;;;;;;;;;5056419;28;20746;-84
2021/12/26 01:23:28;;;;;;;24.30;17.67;;;;;;;;;;5061270;28;20210;-84
2021/12/26 01:26:01;;;;;;;22.53;16.93;;;;;;;;;;5056860;28;20217;-84
2021/12/26 01:28:29;;;;;;;24.17;17.23;;;;;;;;;;5053623;28;20209;-84
2021/12/26 01:31:02;;;;;;;25.13;17.20;;;;;;;;;;5060818;28;20202;-84
2021/12/26 01:33:37;;;;;;;25.27;16.40;;;;;;;;;;5058671;28;20205;-85
2021/12/26 01:36:09;;;;;;;23.97;16.37;;;;;;;;;;5061383;28;20311;-84
2021/12/26 01:38:39;;;;;;;23.57;15.97;;;;;;;;;;5057726;28;20214;-85
2021/12/26 01:41:10;;;;;;;20.00;15.57;;;;;;;;;;5046615;28;20225;-85
2021/12/26 01:43:38;;;;;;;20.53;16.07;;;;;;;;;;5044511;28;20612;-84
2021/12/26 01:46:08;;;;;;;19.90;15.67;;;;;;;;;;5056793;28;20247;-83
2021/12/26 01:51:25;;;;;;;17.80;13.90;;;;;;;;;;5053680;28;20224;-84
2021/12/26 01:54:03;;;;;;;18.87;13.77;;;;;;;;;;5060295;28;20201;-83
2021/12/26 01:56:33;;;;;;;18.53;14.27;;;;;;;;;;5055028;28;20272;-83
2021/12/26 01:59:24;;;;;;;18.80;13.83;;;;;;;;;;5059188;28;20219;-84
2021/12/26 02:02:14;;;;;;;19.43;14.63;;;;;;;;;;5034213;28;20206;-84
2021/12/26 02:05:03;;;;;;;19.07;13.93;;;;;;;;;;5047558;28;20292;-83
2021/12/26 02:07:35;;;;;;;19.77;15.00;;;;;;;;;;5044788;28;20206;-83
2021/12/26 02:10:03;;;;;;;19.83;14.80;;;;;;;;;;5056808;28;20205;-84
2021/12/26 02:12:33;;;;;;;20.37;15.00;;;;;;;;;;5060584;28;20209;-84
2021/12/26 02:15:05;;;;;;;21.30;15.37;;;;;;;;;;5054884;28;20276;-85
2021/12/26 02:17:41;;;;;;;20.80;15.90;;;;;;;;;;5060598;28;20209;-85
2021/12/26 02:20:36;;;;;;;21.33;15.57;;;;;;;;;;5062119;28;20255;-84
2021/12/26 02:23:11;;;;;;;21.27;15.63;;;;;;;;;;5036231;28;20205;-85
2021/12/26 02:28:23;;;;;;;22.00;15.83;;;;;;;;;;5055158;28;20230;-85
2021/12/26 02:30:51;;;;;;;25.10;17.13;;;;;;;;;;5061918;28;20307;-85
2021/12/26 02:33:19;;;;;;;25.50;17.27;;;;;;;;;;5048949;28;20202;-85
2021/12/26 02:35:46;;;;;;;25.30;17.73;;;;;;;;;;5049047;28;20221;-85
2021/12/26 02:38:15;;;;;;;25.07;18.27;;;;;;;;;;5053914;28;20202;-84
2021/12/26 02:40:43;;;;;;;24.10;17.20;;;;;;;;;;5057760;28;20288;-85
2021/12/26 02:43:13;;;;;;;21.57;16.53;;;;;;;;;;5058596;28;20247;-85
2021/12/26 02:45:41;;;;;;;21.87;16.27;;;;;;;;;;5062302;28;20225;-85
2021/12/26 02:48:09;;;;;;;23.03;16.70;;;;;;;;;;5069577;28;20243;-85
2021/12/26 02:50:38;;;;;;;24.63;17.77;;;;;;;;;;5071483;28;20205;-84
2021/12/26 02:53:06;;;;;;;23.93;17.23;;;;;;;;;;5063197;28;20224;-84
2021/12/26 02:55:35;;;;;;;25.13;17.17;;;;;;;;;;5064937;28;20249;-85
2021/12/26 02:58:02;;;;;;;24.20;16.97;;;;;;;;;;5059340;28;20205;-84
2021/12/26 03:00:31;;;;;;;23.80;17.47;;;;;;;;;;5064045;28;20247;-85
2021/12/26 03:02:59;;;;;;;26.37;18.00;;;;;;;;;;5060578;28;20264;-85
2021/12/26 03:05:28;;;;;;;26.33;18.10;;;;;;;;;;5064382;28;20241;-85
2021/12/26 03:07:55;;;;;;;24.57;17.57;;;;;;;;;;5054526;28;20213;-85
2021/12/26 03:10:25;;;;;;;26.87;18.13;;;;;;;;;;5064358;28;20205;-84
2021/12/26 03:12:54;;;;;;;24.07;16.90;;;;;;;;;;5063479;28;20206;-84
2021/12/26 03:15:22;;;;;;;28.90;18.07;;;;;;;;;;5062830;28;20221;-84
2021/12/26 03:17:50;;;;;;;23.93;16.93;;;;;;;;;;5064606;28;20209;-85
2021/12/26 03:20:18;;;;;;;26.87;17.73;;;;;;;;;;5059617;28;20213;-85
2021/12/26 03:22:46;;;;;;;23.57;17.50;;;;;;;;;;5060084;28;20221;-85
2021/12/26 03:25:14;;;;;;;25.37;17.70;;;;;;;;;;5053311;28;20249;-84
2021/12/26 03:27:42;;;;;;;27.30;18.63;;;;;;;;;;5060651;28;20204;-85
2021/12/26 03:30:12;;;;;;;26.67;18.00;;;;;;;;;;5058155;28;20197;-84
2021/12/26 03:32:39;;;;;;;27.00;17.67;;;;;;;;;;5056634;28;20212;-84
2021/12/26 03:35:07;;;;;;;26.50;17.63;;;;;;;;;;5061239;28;20233;-83
2021/12/26 03:37:35;;;;;;;23.33;17.50;;;;;;;;;;5061203;28;20225;-83
2021/12/26 03:40:02;;;;;;;25.97;18.37;;;;;;;;;;5055314;28;20241;-84
2021/12/26 03:42:29;;;;;;;25.60;17.43;;;;;;;;;;5054098;28;20208;-84
2021/12/26 03:44:57;;;;;;;24.97;17.40;;;;;;;;;;5051478;28;20248;-84
2021/12/26 03:47:25;;;;;;;27.23;18.30;;;;;;;;;;5045099;28;20206;-83
2021/12/26 03:49:53;;;;;;;27.40;18.70;;;;;;;;;;5038089;28;20198;-84
2021/12/26 03:52:22;;;;;;;27.93;18.80;;;;;;;;;;5034787;28;20209;-84
2021/12/26 03:54:50;;;;;;;28.10;19.13;;;;;;;;;;5062539;22;20277;-86
2021/12/26 03:57:17;;;;;;;27.33;19.00;;;;;;;;;;5011896;28;20203;-86
2021/12/26 03:59:44;;;;;;;31.10;19.10;;;;;;;;;;5015662;28;20214;-86
2021/12/26 04:02:11;;;;;;;29.00;19.23;;;;;;;;;;5010852;28;20281;-86
2021/12/26 04:04:41;;;;;;;28.13;18.80;;;;;;;;;;5015963;28;20275;-85
2021/12/26 04:07:09;;;;;;;27.80;19.27;;;;;;;;;;5022925;28;20305;-86
2021/12/26 04:09:39;;;;;;;26.67;18.17;;;;;;;;;;5012876;28;20293;-86
2021/12/26 04:12:07;;;;;;;27.07;18.70;;;;;;;;;;5035665;28;20214;-86
2021/12/26 04:14:34;;;;;;;27.07;18.07;;;;;;;;;;5056046;28;20202;-85
2021/12/26 04:17:01;;;;;;;27.43;19.33;;;;;;;;;;5056001;28;20212;-84
2021/12/26 04:19:29;;;;;;;27.77;19.07;;;;;;;;;;5056802;28;20205;-83
2021/12/26 04:21:57;;;;;;;29.90;19.50;;;;;;;;;;5055470;28;20313;-84
2021/12/26 04:24:25;;;;;;;25.63;18.37;;;;;;;;;;5055539;28;20259;-84
2021/12/26 04:26:52;;;;;;;26.37;18.20;;;;;;;;;;5055131;28;20197;-85
2021/12/26 04:29:20;;;;;;;27.07;18.93;;;;;;;;;;5055841;28;20301;-84
2021/12/26 04:31:47;;;;;;;28.20;18.83;;;;;;;;;;5054921;28;20221;-84
2021/12/26 04:34:14;;;;;;;28.43;19.13;;;;;;;;;;5046201;28;20232;-83
2021/12/26 04:36:41;;;;;;;27.77;18.43;;;;;;;;;;5057174;28;20225;-84
2021/12/26 04:39:10;;;;;;;28.50;18.17;;;;;;;;;;5057037;28;20209;-83
2021/12/26 04:41:39;;;;;;;26.00;18.13;;;;;;;;;;5056273;28;20223;-83
2021/12/26 04:44:07;;;;;;;30.10;19.03;;;;;;;;;;5056719;28;20227;-86
2021/12/26 04:46:34;;;;;;;30.27;18.97;;;;;;;;;;5057048;28;20229;-83
2021/12/26 04:49:01;;;;;;;27.00;19.20;;;;;;;;;;5057261;28;20228;-84
2021/12/26 04:51:29;;;;;;;30.00;19.67;;;;;;;;;;5056437;28;20579;-84
2021/12/26 04:53:59;;;;;;;29.43;19.97;;;;;;;;;;5056758;28;20239;-84
2021/12/26 04:56:28;;;;;;;28.30;18.13;;;;;;;;;;5056200;28;20249;-84
2021/12/26 04:58:55;;;;;;;27.50;18.07;;;;;;;;;;5056395;28;20217;-84
2021/12/26 05:01:23;;;;;;;26.73;17.90;;;;;;;;;;5056604;28;20417;-84
2021/12/26 05:03:50;;;;;;;29.43;18.87;;;;;;;;;;5056982;28;20240;-84
2021/12/26 05:06:17;;;;;;;25.93;17.37;;;;;;;;;;5056593;28;20228;-84
2021/12/26 05:08:44;;;;;;;28.37;18.63;;;;;;;;;;5056697;28;20208;-84
2021/12/26 05:11:12;;;;;;;26.47;17.67;;;;;;;;;;5056315;28;20201;-85
2021/12/26 05:13:40;;;;;;;27.57;18.27;;;;;;;;;;5057489;28;20213;-85
2021/12/26 05:16:08;;;;;;;27.00;17.73;;;;;;;;;;5056031;28;20228;-84
2021/12/26 05:18:35;;;;;;;28.23;18.90;;;;;;;;;;5056268;28;20197;-85
2021/12/26 05:21:02;;;;;;;28.37;18.37;;;;;;;;;;5055225;28;20313;-85
2021/12/26 05:23:29;;;;;;;29.87;18.80;;;;;;;;;;5061172;28;20259;-84
2021/12/26 05:25:57;;;;;;;31.70;19.27;;;;;;;;;;5060247;28;20255;-84
2021/12/26 05:28:24;;;;;;;28.43;19.57;;;;;;;;;;5056071;28;20300;-84
2021/12/26 05:30:53;;;;;;;27.30;18.43;;;;;;;;;;5055673;28;20208;-85
2021/12/26 05:33:20;;;;;;;30.50;19.07;;;;;;;;;;5050738;28;20236;-84
2021/12/26 05:35:50;;;;;;;27.90;18.87;;;;;;;;;;5055364;28;20240;-84
2021/12/26 05:38:17;;;;;;;26.17;17.67;;;;;;;;;;5055325;28;20205;-85
2021/12/26 05:40:44;;;;;;;27.73;19.07;;;;;;;;;;5054112;28;20288;-85
2021/12/26 05:43:12;;;;;;;27.80;17.90;;;;;;;;;;5054927;28;20272;-85
2021/12/26 05:45:39;;;;;;;26.73;18.03;;;;;;;;;;5054685;28;20221;-85
2021/12/26 05:48:08;;;;;;;25.63;18.10;;;;;;;;;;5054352;28;20233;-85
2021/12/26 05:50:35;;;;;;;27.27;16.93;;;;;;;;;;5045931;28;20671;-85
2021/12/26 05:53:02;;;;;;;26.17;17.87;;;;;;;;;;5054660;28;20205;-85
2021/12/26 05:55:31;;;;;;;28.50;17.87;;;;;;;;;;5054458;28;20256;-85
2021/12/26 05:57:58;;;;;;;26.13;17.23;;;;;;;;;;5054376;28;20200;-85
2021/12/26 06:00:25;;;;;;;27.20;17.00;;;;;;;;;;5054887;28;20213;-85
2021/12/26 06:02:54;;;;;;;26.00;16.97;;;;;;;;;;5051629;28;20205;-84
2021/12/26 06:05:23;;;;;;;29.43;18.77;;;;;;;;;;5054778;28;20221;-84
2021/12/26 06:07:51;;;;;;;31.10;18.87;;;;;;;;;;5052253;28;20259;-84
2021/12/26 06:10:18;;;;;;;29.07;18.30;;;;;;;;;;5050240;28;20236;-85
2021/12/26 06:12:45;;;;;;;27.73;17.50;;;;;;;;;;5052800;28;20202;-84
2021/12/26 06:15:13;;;;;;;31.43;18.60;;;;;;;;;;5055121;28;20292;-84
2021/12/26 06:17:40;;;;;;;29.37;18.03;;;;;;;;;;5054803;28;20220;-84
2021/12/26 06:20:13;;;;;;;27.17;17.97;;;;;;;;;;5055149;28;20235;-85
2021/12/26 06:22:42;;;;;;;29.60;18.97;;;;;;;;;;5054260;28;20227;-84
2021/12/26 06:25:10;;;;;;;28.90;18.63;;;;;;;;;;5053829;28;20229;-84
2021/12/26 06:27:37;;;;;;;30.97;19.73;;;;;;;;;;5054038;28;20224;-84
2021/12/26 06:30:05;;;;;;;26.43;17.70;;;;;;;;;;5049999;28;20656;-84
2021/12/26 06:32:33;;;;;;;27.27;18.63;;;;;;;;;;5048807;28;20202;-84
2021/12/26 06:35:01;;;;;;;29.30;18.07;;;;;;;;;;5051794;28;20244;-84
2021/12/26 06:37:28;;;;;;;29.23;19.17;;;;;;;;;;5035882;28;20267;-85
2021/12/26 06:39:59;;;;;;;32.23;19.27;;;;;;;;;;5032255;28;20221;-85
2021/12/26 06:42:27;;;;;;;28.63;18.17;;;;;;;;;;5044365;28;20225;-85
2021/12/26 06:44:54;;;;;;;29.17;18.20;;;;;;;;;;5028635;28;20796;-85
2021/12/26 06:47:22;;;;;;;29.10;18.03;;;;;;;;;;5046742;28;20288;-85
2021/12/26 06:49:49;;;;;;;28.83;17.80;;;;;;;;;;5042177;28;20251;-85
2021/12/26 06:52:17;;;;;;;28.00;17.50;;;;;;;;;;5040937;28;20202;-85
2021/12/26 06:54:44;;;;;;;28.67;17.83;;;;;;;;;;5042077;28;20205;-84
2021/12/26 06:57:13;;;;;;;29.20;18.47;;;;;;;;;;5035210;28;20218;-85
2021/12/26 06:59:43;;;;;;;28.87;19.33;;;;;;;;;;5051875;28;20214;-82
2021/12/26 07:02:11;;;;;;;30.40;18.90;;;;;;;;;;5048412;28;20283;-85
2021/12/26 07:04:38;;;;;;;31.30;19.73;;;;;;;;;;5048591;28;20712;-84
2021/12/26 07:07:05;;;;;;;31.07;19.97;;;;;;;;;;5053147;28;20205;-84
2021/12/26 07:09:33;;;;;;;29.63;19.40;;;;;;;;;;5049908;28;20202;-84
2021/12/26 07:12:00;;;;;;;32.03;20.43;;;;;;;;;;5048217;28;20222;-84
2021/12/26 07:14:29;;;;;;;30.27;19.20;;;;;;;;;;5050871;28;20226;-84
2021/12/26 07:16:56;;;;;;;29.47;19.67;;;;;;;;;;5053085;28;20209;-84
2021/12/26 07:19:24;;;;;;;29.03;19.00;;;;;;;;;;5051463;28;20217;-84
2021/12/26 07:21:51;;;;;;;27.40;18.47;;;;;;;;;;5048194;28;20324;-84
2021/12/26 07:24:18;;;;;;;26.53;17.73;;;;;;;;;;5053915;28;20221;-85
2021/12/26 07:26:45;;;;;;;27.63;17.00;;;;;;;;;;5062332;28;20239;-85
2021/12/26 07:29:13;;;;;;;27.00;17.50;;;;;;;;;;5071781;28;20201;-85
2021/12/26 07:31:43;;;;;;;28.23;18.00;;;;;;;;;;5046116;28;20267;-85
2021/12/26 07:34:10;;;;;;;26.80;17.93;;;;;;;;;;5035884;28;20206;-85
2021/12/26 07:36:37;;;;;;;27.93;18.50;;;;;;;;;;5052687;28;20213;-85
2021/12/26 07:39:05;;;;;;;26.27;17.03;;;;;;;;;;5052559;28;20270;-85
2021/12/26 07:41:33;;;;;;;28.17;18.00;;;;;;;;;;5042161;28;20217;-85
2021/12/26 07:44:00;;;;;;;29.30;18.80;;;;;;;;;;5054900;28;20204;-85
2021/12/26 07:46:28;;;;;;;30.27;18.43;;;;;;;;;;5038213;28;20245;-85
2021/12/26 07:48:56;;;;;;;28.57;18.30;;;;;;;;;;5037619;28;20202;-85
2021/12/26 07:51:24;;;;;;;32.60;19.30;;;;;;;;;;5038748;28;20204;-85
2021/12/26 07:53:59;;;;;;;33.50;19.50;;;;;;;;;;5041723;28;20208;-85
2021/12/26 07:56:26;;;;;;;27.90;17.90;;;;;;;;;;5030193;28;20549;-85
2021/12/26 07:58:53;;;;;;;28.73;18.33;;;;;;;;;;5039841;28;20290;-85
2021/12/26 08:01:20;;;;;;;28.03;18.40;;;;;;;;;;5039823;28;20217;-86
2021/12/26 08:03:48;;;;;;;28.77;17.80;;;;;;;;;;5041313;28;20572;-85
2021/12/26 08:06:19;;;;;;;28.97;19.03;;;;;;;;;;5044118;28;20233;-86
2021/12/26 08:08:46;;;;;;;25.83;17.43;;;;;;;;;;5042392;28;20210;-85
2021/12/26 08:11:13;;;;;;;26.27;17.73;;;;;;;;;;5046622;28;20245;-85
2021/12/26 08:13:41;;;;;;;27.30;17.30;;;;;;;;;;5039712;28;20230;-85
2021/12/26 08:16:08;;;;;;;26.00;17.93;;;;;;;;;;5042976;28;20225;-85
2021/12/26 08:18:38;;;;;;;27.23;18.27;;;;;;;;;;5041755;28;20237;-85
2021/12/26 08:21:06;;;;;;;25.37;17.90;;;;;;;;;;5039535;28;20198;-85
2021/12/26 08:23:43;;;;;;;25.67;17.40;;;;;;;;;;5045061;28;20262;-83
2021/12/26 08:26:10;;;;;;;25.47;17.40;;;;;;;;;;5060351;28;20210;-84
2021/12/26 08:28:37;;;;;;;25.67;16.67;;;;;;;;;;5053728;28;20212;-85
2021/12/26 08:31:05;;;;;;;25.73;17.20;;;;;;;;;;5050187;28;20285;-88
2021/12/26 08:37:10;;;;;;;23.57;16.60;;;;;;;;;;5037356;28;20225;-87
2021/12/26 08:40:00;;;;;;;23.83;16.50;;;;;;;;;;5035372;28;20210;-88
2021/12/26 08:48:37;;;;;;;26.17;17.50;;;;;;;;;;5040211;28;20206;-88
2021/12/26 08:51:05;;;;;;;24.83;17.07;;;;;;;;;;5056004;28;20224;-87
2021/12/26 08:53:35;;;;;;;22.60;16.47;;;;;;;;;;5050038;28;20251;-87
2021/12/26 08:56:05;;;;;;;22.43;15.40;;;;;;;;;;5054763;28;20290;-87
2021/12/26 08:58:59;;;;;;;24.07;15.77;;;;;;;;;;5045101;28;20233;-89
2021/12/26 09:01:26;;;;;;;23.77;16.03;;;;;;;;;;5050897;28;20296;-88
2021/12/26 09:03:55;;;;;;;22.37;15.73;;;;;;;;;;5042816;28;20217;-90
2021/12/26 09:09:35;;;;;;;23.50;17.00;;;;;;;;;;5030112;28;20209;-90
2021/12/26 09:12:06;;;;;;;20.97;16.00;;;;;;;;;;5040771;28;20266;-90
2021/12/26 09:14:36;;;;;;;23.10;16.93;;;;;;;;;;5049486;28;20243;-90
2021/12/26 09:17:06;;;;;;;23.37;16.87;;;;;;;;;;5058441;28;20229;-90
2021/12/26 09:19:37;;;;;;;24.10;16.90;;;;;;;;;;5058217;28;20220;-92
2021/12/26 09:25:28;;;;;;;22.27;15.90;;;;;;;;;;4955047;29;20754;-88
2021/12/26 09:27:59;;;;;;;21.07;15.97;;;;;;;;;;5021680;28;20213;-87
2021/12/26 09:30:27;;;;;;;21.70;15.40;;;;;;;;;;5041031;28;20280;-86
2021/12/26 09:32:54;;;;;;;23.30;16.93;;;;;;;;;;5045380;28;20259;-87
2021/12/26 09:35:21;;;;;;;22.00;15.87;;;;;;;;;;5055272;28;20249;-87
2021/12/26 09:37:52;;;;;;;22.63;16.83;;;;;;;;;;5052860;28;20217;-87
2021/12/26 09:40:19;;;;;;;23.50;16.70;;;;;;;;;;5055992;28;20210;-86
2021/12/26 09:42:47;;;;;;;20.80;15.77;;;;;;;;;;5037155;28;20243;-86
2021/12/26 09:45:18;;;;;;;17.97;14.67;;;;;;;;;;5056763;28;20252;-87
2021/12/26 09:47:49;;;;;;;21.17;15.87;;;;;;;;;;5053611;28;20214;-83
2021/12/26 09:50:18;;;;;;;21.00;15.50;;;;;;;;;;5057259;28;20201;-82
2021/12/26 09:52:47;;;;;;;20.70;16.13;;;;;;;;;;5054104;28;20233;-86
2021/12/26 09:55:14;;;;;;;20.67;15.20;;;;;;;;;;5038474;28;20252;-86
2021/12/26 09:57:44;;;;;;;21.43;15.50;;;;;;;;;;5046639;28;20314;-88
2021/12/26 10:00:20;;;;;;;20.33;15.50;;;;;;;;;;5035239;28;20212;-88
2021/12/26 10:02:47;;;;;;;20.73;15.73;;;;;;;;;;5045180;28;20307;-87
2021/12/26 10:05:15;;;;;;;18.47;14.77;;;;;;;;;;5024488;28;20309;-88
2021/12/26 10:07:43;;;;;;;19.57;15.17;;;;;;;;;;5050608;28;20198;-88
2021/12/26 10:10:11;;;;;;;19.27;15.33;;;;;;;;;;5053131;28;20193;-88
2021/12/26 10:12:42;;;;;;;19.40;15.03;;;;;;;;;;5054999;28;20205;-88
2021/12/26 10:15:10;;;;;;;19.03;14.13;;;;;;;;;;5074661;28;20235;-88
2021/12/26 10:17:39;;;;;;;22.53;15.57;;;;;;;;;;5063883;28;20212;-88
2021/12/26 10:20:07;;;;;;;17.73;14.93;;;;;;;;;;5056293;28;20208;-88
2021/12/26 10:22:37;;;;;;;19.00;15.37;;;;;;;;;;5059397;28;20236;-89
2021/12/26 10:25:09;;;;;;;20.47;15.57;;;;;;;;;;5058718;28;20234;-88
2021/12/26 10:27:37;;;;;;;21.33;15.97;;;;;;;;;;5055468;28;20204;-89
2021/12/26 10:30:06;;;;;;;19.50;15.53;;;;;;;;;;5055195;28;20225;-87
2021/12/26 10:32:38;;;;;;;18.40;15.00;;;;;;;;;;5047982;28;20203;-88
2021/12/26 10:35:09;;;;;;;17.27;14.60;;;;;;;;;;5044620;28;20217;-88
2021/12/26 10:37:41;;;;;;;17.07;14.60;;;;;;;;;;5035256;28;20217;-87
2021/12/26 10:40:14;;;;;;;16.43;13.87;;;;;;;;;;5044216;28;20210;-88
2021/12/26 10:42:45;;;;;;;17.17;14.97;;;;;;;;;;5045203;28;20223;-88
2021/12/26 10:45:14;;;;;;;14.97;12.47;;;;;;;;;;5046665;28;20225;-88
2021/12/26 10:47:42;;;;;;;16.13;13.47;;;;;;;;;;5038632;28;20221;-88
2021/12/26 10:50:11;;;;;;;14.50;12.33;;;;;;;;;;5038680;28;20205;-88
2021/12/26 10:52:41;;;;;;;16.90;14.13;;;;;;;;;;5053432;28;20240;-87
2021/12/26 10:55:10;;;;;;;15.43;12.80;;;;;;;;;;5064274;28;20236;-88
2021/12/26 10:57:40;;;;;;;18.13;13.23;;;;;;;;;;5066465;28;20193;-88
2021/12/26 11:00:11;;;;;;;16.27;13.50;;;;;;;;;;5068467;28;20193;-88
2021/12/26 11:02:40;;;;;;;16.87;13.83;;;;;;;;;;5055567;28;20231;-88
2021/12/26 11:05:09;;;;;;;16.53;13.80;;;;;;;;;;5055294;28;20245;-88
2021/12/26 11:07:42;;;;;;;15.50;13.07;;;;;;;;;;5044210;28;20217;-88
2021/12/26 11:10:11;;;;;;;16.70;13.27;;;;;;;;;;5033904;28;20232;-88
2021/12/26 11:12:39;;;;;;;18.77;14.30;;;;;;;;;;5033514;28;20197;-88
2021/12/26 11:15:08;;;;;;;20.17;15.20;;;;;;;;;;5033736;28;20252;-88
2021/12/26 11:17:42;;;;;;;21.80;15.07;;;;;;;;;;5030787;28;20206;-88
2021/12/26 11:20:10;;;;;;;17.40;14.03;;;;;;;;;;5034515;28;20209;-89
2021/12/26 11:22:38;;;;;;;16.50;13.67;;;;;;;;;;5021443;28;20267;-89
2021/12/26 11:25:07;;;;;;;17.03;13.23;;;;;;;;;;5030578;28;20233;-88
2021/12/26 11:27:34;;;;;;;16.63;13.47;;;;;;;;;;5032044;28;20230;-89
2021/12/26 11:33:13;;;;;;;;;;;;;;;;;;;;;
2021/12/26 11:36:14;;;;;;;14.97;12.73;;;;;;;;;;5027232;28;20339;-92
2021/12/26 11:47:39;;;;;;;12.93;10.93;;;;;;;;;;4980876;28;20207;-90
2021/12/26 11:50:17;;;;;;;11.83;10.57;;;;;;;;;;4980397;28;20239;-87
2021/12/26 11:52:51;;;;;;;11.97;10.67;;;;;;;;;;5016827;28;20200;-91
2021/12/26 11:55:25;;;;;;;10.63;9.60;;;;;;;;;;5034363;28;20242;-91
2021/12/26 11:58:11;;;;;;;10.53;9.40;;;;;;;;;;5033928;28;20199;-91
2021/12/26 12:00:41;;;;;;;11.47;10.03;;;;;;;;;;5034910;28;20191;-91
2021/12/26 12:03:39;;;;;;;10.30;9.20;;;;;;;;;;5024943;28;20244;-92
2021/12/26 12:06:07;;;;;;;11.00;9.90;;;;;;;;;;5016194;28;20302;-91
2021/12/26 12:08:35;;;;;;;10.33;9.33;;;;;;;;;;5015333;28;20238;-89
2021/12/26 12:11:03;;;;;;;9.30;8.40;;;;;;;;;;5013776;28;20301;-88
2021/12/26 12:13:50;;;;;;;9.63;8.50;;;;;;;;;;5014202;28;20673;-88
2021/12/26 12:16:34;;;;;;;10.43;9.43;;;;;;;;;;5015214;28;20237;-89
2021/12/26 12:19:11;;;;;;;9.87;8.87;;;;;;;;;;5015164;28;20210;-89
2021/12/26 12:21:40;;;;;;;9.67;8.67;;;;;;;;;;5019382;28;20226;-89
2021/12/26 12:24:11;;;;;;;9.63;8.63;;;;;;;;;;5023800;28;20290;-86
2021/12/26 12:27:09;;;;;;;9.63;8.63;;;;;;;;;;5018148;28;20249;-91
2021/12/26 12:33:17;;;;;;;14.87;11.57;;;;;;;;;;4930002;29;20209;-89
2021/12/26 12:42:22;;;;;;;8.87;7.97;;;;;;;;;;5009256;28;20266;-91
2021/12/26 12:44:59;;;;;;;8.67;7.77;;;;;;;;;;5016709;28;20265;-91
2021/12/26 12:47:26;;;;;;;9.43;8.43;;;;;;;;;;5017029;28;20221;-91
2021/12/26 12:49:57;;;;;;;9.20;8.20;;;;;;;;;;5017921;28;20227;-90
2021/12/26 12:52:38;;;;;;;9.27;8.00;;;;;;;;;;5013721;28;20246;-89
2021/12/26 12:55:06;;;;;;;9.60;8.63;;;;;;;;;;5014173;28;20691;-89
2021/12/26 12:57:40;;;;;;;10.07;8.70;;;;;;;;;;5016110;28;20265;-89
2021/12/26 13:00:28;;;;;;;9.47;8.47;;;;;;;;;;5017624;28;20249;-89
2021/12/26 13:02:56;;;;;;;8.80;8.00;;;;;;;;;;5015134;28;20222;-88
2021/12/26 13:05:27;;;;;;;9.83;8.60;;;;;;;;;;5016049;28;20223;-88
2021/12/26 13:07:59;;;;;;;9.13;8.23;;;;;;;;;;5016406;28;20217;-89
2021/12/26 13:10:27;;;;;;;9.03;8.13;;;;;;;;;;5023535;28;20214;-88
2021/12/26 13:13:04;;;;;;;9.03;8.13;;;;;;;;;;5020330;28;20213;-88
2021/12/26 13:15:31;;;;;;;9.90;8.90;;;;;;;;;;5015584;28;20281;-88
2021/12/26 13:17:59;;;;;;;9.23;8.17;;;;;;;;;;5019082;28;20285;-88
2021/12/26 13:20:26;;;;;;;9.77;8.77;;;;;;;;;;5019397;28;20207;-90
2021/12/26 13:23:20;;;;;;;9.43;8.20;;;;;;;;;;5032160;28;20202;-91
2021/12/26 13:26:02;;;;;;;9.83;8.83;;;;;;;;;;5020936;28;20238;-91
2021/12/26 13:28:50;;;;;;;9.50;8.50;;;;;;;;;;5018074;28;20213;-92
2021/12/26 13:31:18;;;;;;;10.50;9.50;;;;;;;;;;5013132;28;20205;-92
2021/12/26 13:34:00;;;;;;;8.93;8.07;;;;;;;;;;5015262;28;20218;-89
2021/12/26 13:36:30;;;;;;;9.60;8.60;;;;;;;;;;5013090;28;20234;-89
2021/12/26 13:39:02;;;;;;;8.90;8.10;;;;;;;;;;5016854;28;20206;-91
2021/12/26 13:41:30;;;;;;;9.93;8.93;;;;;;;;;;5011955;28;20221;-91
2021/12/26 13:44:01;;;;;;;9.63;8.60;;;;;;;;;;5014804;28;21003;-92
2021/12/26 13:46:32;;;;;;;9.77;8.70;;;;;;;;;;5018569;28;20295;-92
2021/12/26 13:48:59;;;;;;;10.80;9.67;;;;;;;;;;5035227;28;20213;-91
2021/12/26 13:51:28;;;;;;;10.27;9.07;;;;;;;;;;5035638;28;20190;-90
2021/12/26 13:53:59;;;;;;;10.20;9.13;;;;;;;;;;5030297;28;20206;-91
2021/12/26 13:56:28;;;;;;;9.67;8.67;;;;;;;;;;5021023;28;20226;-89
2021/12/26 13:58:56;;;;;;;10.50;9.50;;;;;;;;;;5026683;28;20222;-89
2021/12/26 14:01:25;;;;;;;9.83;8.93;;;;;;;;;;5017311;28;20334;-88
2021/12/26 14:03:52;;;;;;;9.93;9.03;;;;;;;;;;5013581;28;20222;-89
2021/12/26 14:06:27;;;;;;;10.30;9.30;;;;;;;;;;5014551;28;20231;-88
2021/12/26 14:08:56;;;;;;;8.37;7.57;;;;;;;;;;5013436;28;20198;-90
2021/12/26 14:11:23;;;;;;;9.23;8.33;;;;;;;;;;5013391;28;20205;-88
2021/12/26 14:13:56;;;;;;;8.53;7.73;;;;;;;;;;5015318;28;20387;-89
2021/12/26 14:16:24;;;;;;;8.57;7.77;;;;;;;;;;5014787;28;20230;-91
2021/12/26 14:18:51;;;;;;;7.60;6.90;;;;;;;;;;5016261;28;20214;-87
2021/12/26 14:21:20;;;;;;;8.70;7.83;;;;;;;;;;5013586;28;20281;-86
2021/12/26 14:23:48;;;;;;;8.60;7.80;;;;;;;;;;5014665;28;20287;-87
2021/12/26 14:26:24;;;;;;;8.20;7.40;;;;;;;;;;5017658;28;20222;-89
2021/12/26 14:28:54;;;;;;;8.40;7.60;;;;;;;;;;5011702;28;20244;-90
2021/12/26 14:31:34;;;;;;;8.60;7.70;;;;;;;;;;5015727;28;20286;-89
2021/12/26 14:34:02;;;;;;;8.90;8.10;;;;;;;;;;5013854;28;20222;-87
2021/12/26 14:36:29;;;;;;;7.97;7.27;;;;;;;;;;5010351;28;20230;-88
2021/12/26 14:38:58;;;;;;;8.93;8.03;;;;;;;;;;5020428;28;20203;-88
2021/12/26 14:41:36;;;;;;;8.57;7.77;;;;;;;;;;5017014;28;20245;-88
2021/12/26 14:44:18;;;;;;;8.53;7.73;;;;;;;;;;5016308;28;20230;-89
2021/12/26 14:46:48;;;;;;;8.60;7.70;;;;;;;;;;5015190;28;20226;-88
2021/12/26 14:49:17;;;;;;;8.33;7.60;;;;;;;;;;5024628;28;20206;-89
2021/12/26 14:51:59;;;;;;;8.67;7.77;;;;;;;;;;5020915;28;20202;-89
2021/12/26 14:54:36;;;;;;;8.47;7.63;;;;;;;;;;5016682;28;20202;-89
2021/12/26 14:57:03;;;;;;;8.10;7.30;;;;;;;;;;5014007;28;20226;-88
2021/12/26 14:59:33;;;;;;;8.47;7.67;;;;;;;;;;5014295;28;20218;-88
2021/12/26 15:02:12;;;;;;;8.30;7.50;;;;;;;;;;5010512;28;20326;-89
2021/12/26 15:04:40;;;;;;;9.73;7.37;;;;;;;;;;5012826;28;20222;-89
2021/12/26 15:07:08;;;;;;;8.27;7.47;;;;;;;;;;5011775;28;20264;-89
2021/12/26 15:09:38;;;;;;;8.40;7.47;;;;;;;;;;5012610;28;20202;-89
2021/12/26 15:12:07;;;;;;;8.53;7.63;;;;;;;;;;5011700;28;20210;-88
2021/12/26 15:14:36;;;;;;;8.10;7.27;;;;;;;;;;5012996;28;20206;-89
2021/12/26 15:17:14;;;;;;;7.60;6.90;;;;;;;;;;5012991;28;20226;-88
2021/12/26 15:19:41;;;;;;;8.60;7.80;;;;;;;;;;5013440;28;20233;-88
2021/12/26 15:22:11;;;;;;;8.03;7.23;;;;;;;;;;5013881;28;20233;-89
2021/12/26 15:24:47;;;;;;;8.00;7.30;;;;;;;;;;5014355;28;20233;-88
2021/12/26 15:27:15;;;;;;;7.80;7.10;;;;;;;;;;5013699;28;20644;-88
2021/12/26 15:29:43;;;;;;;7.70;6.90;;;;;;;;;;5013411;28;20214;-89